Cedar Pass, Utah
Current Conditions -  °F | °C
As of 1:52 PM on Wednesday 17 Dec 2014 (Local Time) from KPVU Reporting Station
Overcast Overcast  
Wind Chill: 39°   Ceiling: 7500
Heat Index: 39°   Visibility: 15mi
Dew Point: 30°   Wind: 3mph
Humidity: 70%   Direction: NA
Pressure: 29.97"   Gusts: NA
Location:  40.3936°N, 111.846°W
Report Text: KPVU 172052Z VRB03KT 15SM OVC075 04/M01 A2997
Loading
Personal Weather Stations






























Interactive Weather Map New forecast layout! Learn more

10-Day Weather Forecast

Advertisements
Track Severe Weather on mobile